SPMCH LEZL-LEPA
Flight info
| Callsign | SPMCH |
|---|---|
| Flight time | 1h 26m |
| Altitude | 43000 |
| Route | MAR DCT MGA DCT RIXUR DCT UNTOS DCT ROLAS DCT TOSGA DCT RESTU DCT ALT DCT SUMMO DCT MITOS DCT BRUNO DCT RUXET |
| Aircraft | HDJT/L-SABDGRWY/H |
Departure
| Time | 2026-04-25 14:47 |
|---|---|
| Airport | Seville Airport (LEZL) |
Arrival
| Time | 2026-04-25 16:14 |
|---|---|
| Airport | Palma de Mallorca Airport (LEPA) |
| Time | Latitude | Longitude | Altitude | Speed | Heading |
|---|---|---|---|---|---|
| 2026-04-25 14:41 | 37.42039 | -5.90468 | 95 ft | 0 kts | 270° |
| 2026-04-25 14:44 | 37.42039 | -5.90469 | 95 ft | 0 kts | 270° |
| 2026-04-25 14:45 | 37.42039 | -5.90482 | 95 ft | 5 kts | 270° |
| 2026-04-25 14:45 | 37.42008 | -5.90531 | 94 ft | 12 kts | 180° |
| 2026-04-25 14:45 | 37.41978 | -5.90636 | 93 ft | 19 kts | 270° |
| 2026-04-25 14:46 | 37.41971 | -5.90858 | 87 ft | 28 kts | 266° |
| 2026-04-25 14:46 | 37.41917 | -5.91054 | 86 ft | 23 kts | 243° |
| 2026-04-25 14:46 | 37.41833 | -5.91190 | 84 ft | 15 kts | 178° |
| 2026-04-25 14:46 | 37.41796 | -5.91169 | 84 ft | 1 kts | 122° |
| 2026-04-25 14:47 | 37.41790 | -5.91139 | 84 ft | 12 kts | 90° |
| 2026-04-25 14:47 | 37.41789 | -5.90933 | 89 ft | 59 kts | 88° |
| 2026-04-25 14:47 | 37.41791 | -5.89750 | 216 ft | 129 kts | 89° |
| 2026-04-25 14:47 | 37.41787 | -5.88580 | 752 ft | 139 kts | 91° |
| 2026-04-25 14:48 | 37.41769 | -5.87247 | 1154 ft | 162 kts | 93° |
| 2026-04-25 14:48 | 37.41743 | -5.85844 | 1121 ft | 168 kts | 89° |
| 2026-04-25 14:48 | 37.41801 | -5.84280 | 1060 ft | 190 kts | 89° |
| 2026-04-25 14:48 | 37.41824 | -5.82552 | 1288 ft | 207 kts | 88° |
| 2026-04-25 14:49 | 37.42071 | -5.80797 | 2254 ft | 205 kts | 78° |
| 2026-04-25 14:49 | 37.42358 | -5.78962 | 2918 ft | 217 kts | 80° |
| 2026-04-25 14:49 | 37.42629 | -5.77091 | 3852 ft | 217 kts | 79° |
| 2026-04-25 14:49 | 37.43076 | -5.75275 | 4745 ft | 219 kts | 64° |
| 2026-04-25 14:50 | 37.43734 | -5.73540 | 5594 ft | 221 kts | 66° |
| 2026-04-25 14:50 | 37.44337 | -5.71751 | 6436 ft | 223 kts | 68° |
| 2026-04-25 14:50 | 37.44961 | -5.69945 | 7229 ft | 226 kts | 66° |
| 2026-04-25 14:50 | 37.45598 | -5.68149 | 8015 ft | 229 kts | 66° |
| 2026-04-25 14:51 | 37.46245 | -5.66306 | 8825 ft | 231 kts | 66° |
| 2026-04-25 14:51 | 37.46893 | -5.64446 | 9637 ft | 233 kts | 66° |
| 2026-04-25 14:51 | 37.47554 | -5.62559 | 10396 ft | 236 kts | 66° |
| 2026-04-25 14:51 | 37.48221 | -5.60654 | 11140 ft | 238 kts | 66° |
| 2026-04-25 14:52 | 37.48893 | -5.58733 | 11871 ft | 241 kts | 66° |
| 2026-04-25 14:52 | 37.49571 | -5.56788 | 12594 ft | 244 kts | 66° |
| 2026-04-25 14:52 | 37.50257 | -5.54824 | 13331 ft | 246 kts | 66° |
| 2026-04-25 14:52 | 37.50716 | -5.53511 | 13805 ft | 248 kts | 66° |
| 2026-04-25 14:53 | 37.51649 | -5.50836 | 14673 ft | 250 kts | 66° |
| 2026-04-25 14:53 | 37.52342 | -5.48842 | 15312 ft | 252 kts | 66° |
| 2026-04-25 14:53 | 37.53051 | -5.46807 | 15946 ft | 254 kts | 66° |
| 2026-04-25 14:53 | 37.53765 | -5.44756 | 16584 ft | 256 kts | 66° |
| 2026-04-25 14:54 | 37.54485 | -5.42689 | 17214 ft | 259 kts | 66° |
| 2026-04-25 14:54 | 37.55210 | -5.40603 | 17834 ft | 261 kts | 66° |
| 2026-04-25 14:54 | 37.55940 | -5.38494 | 18432 ft | 264 kts | 66° |
| 2026-04-25 14:54 | 37.56681 | -5.36360 | 18943 ft | 266 kts | 66° |
| 2026-04-25 14:55 | 37.57418 | -5.34234 | 19446 ft | 269 kts | 66° |
| 2026-04-25 14:55 | 37.58172 | -5.32060 | 19950 ft | 272 kts | 66° |
| 2026-04-25 14:55 | 37.58933 | -5.29863 | 20463 ft | 275 kts | 66° |
| 2026-04-25 14:55 | 37.59701 | -5.27640 | 20963 ft | 277 kts | 66° |
| 2026-04-25 14:56 | 37.60418 | -5.25370 | 21467 ft | 280 kts | 75° |
| 2026-04-25 14:56 | 37.60718 | -5.22933 | 21967 ft | 283 kts | 85° |
| 2026-04-25 14:56 | 37.60882 | -5.20436 | 22457 ft | 286 kts | 84° |
| 2026-04-25 14:56 | 37.61068 | -5.17923 | 22958 ft | 289 kts | 84° |
| 2026-04-25 14:57 | 37.61249 | -5.15418 | 23449 ft | 292 kts | 84° |
| 2026-04-25 14:57 | 37.61426 | -5.12855 | 23909 ft | 294 kts | 84° |
| 2026-04-25 14:57 | 37.61606 | -5.10277 | 24353 ft | 296 kts | 84° |
| 2026-04-25 14:57 | 37.61788 | -5.07684 | 24794 ft | 297 kts | 84° |
| 2026-04-25 14:58 | 37.61969 | -5.05084 | 25239 ft | 299 kts | 84° |
| 2026-04-25 14:58 | 37.62150 | -5.02463 | 25679 ft | 300 kts | 85° |
| 2026-04-25 14:58 | 37.62333 | -4.99831 | 26117 ft | 302 kts | 85° |
| 2026-04-25 14:58 | 37.62515 | -4.97178 | 26552 ft | 304 kts | 85° |
| 2026-04-25 14:59 | 37.62696 | -4.94544 | 26990 ft | 305 kts | 85° |
| 2026-04-25 14:59 | 37.62880 | -4.91867 | 27428 ft | 307 kts | 85° |
| 2026-04-25 14:59 | 37.63063 | -4.89170 | 27868 ft | 309 kts | 85° |
| 2026-04-25 14:59 | 37.63248 | -4.86457 | 28311 ft | 311 kts | 85° |
| 2026-04-25 15:00 | 37.63434 | -4.83722 | 28761 ft | 312 kts | 85° |
| 2026-04-25 15:00 | 37.63618 | -4.80981 | 29209 ft | 314 kts | 85° |
| 2026-04-25 15:00 | 37.63802 | -4.78260 | 29655 ft | 316 kts | 86° |
| 2026-04-25 15:00 | 37.63988 | -4.75485 | 30098 ft | 318 kts | 86° |
| 2026-04-25 15:01 | 37.64174 | -4.72696 | 30467 ft | 319 kts | 86° |
| 2026-04-25 15:01 | 37.64361 | -4.69903 | 30903 ft | 319 kts | 86° |
| 2026-04-25 15:01 | 37.64546 | -4.67115 | 31358 ft | 318 kts | 86° |
| 2026-04-25 15:01 | 37.64729 | -4.64337 | 31803 ft | 317 kts | 86° |
| 2026-04-25 15:02 | 37.64911 | -4.61565 | 32255 ft | 316 kts | 86° |
| 2026-04-25 15:02 | 37.65093 | -4.58803 | 32693 ft | 315 kts | 86° |
| 2026-04-25 15:02 | 37.65273 | -4.56049 | 33142 ft | 314 kts | 86° |
| 2026-04-25 15:02 | 37.65450 | -4.53333 | 33588 ft | 313 kts | 86° |
| 2026-04-25 15:03 | 37.65628 | -4.50589 | 34026 ft | 312 kts | 87° |
| 2026-04-25 15:03 | 37.65805 | -4.47857 | 34383 ft | 313 kts | 86° |
| 2026-04-25 15:03 | 37.65981 | -4.45121 | 34696 ft | 314 kts | 86° |
| 2026-04-25 15:03 | 37.66158 | -4.42367 | 35011 ft | 315 kts | 86° |
| 2026-04-25 15:04 | 37.66335 | -4.39602 | 35321 ft | 316 kts | 86° |
| 2026-04-25 15:04 | 37.66512 | -4.36833 | 35629 ft | 317 kts | 86° |
| 2026-04-25 15:04 | 37.66688 | -4.34052 | 35928 ft | 318 kts | 85° |
| 2026-04-25 15:04 | 37.66865 | -4.31260 | 36223 ft | 319 kts | 85° |
| 2026-04-25 15:05 | 37.67039 | -4.28498 | 36516 ft | 320 kts | 85° |
| 2026-04-25 15:05 | 37.67215 | -4.25689 | 36821 ft | 321 kts | 85° |
| 2026-04-25 15:05 | 37.67391 | -4.22873 | 37116 ft | 322 kts | 85° |
| 2026-04-25 15:06 | 37.67744 | -4.17217 | 37671 ft | 324 kts | 84° |
| 2026-04-25 15:06 | 37.67921 | -4.14368 | 37940 ft | 326 kts | 84° |
| 2026-04-25 15:06 | 37.68096 | -4.11513 | 38219 ft | 327 kts | 84° |
| 2026-04-25 15:06 | 37.68271 | -4.08652 | 38497 ft | 328 kts | 84° |
| 2026-04-25 15:07 | 37.68448 | -4.05774 | 38756 ft | 329 kts | 84° |
| 2026-04-25 15:07 | 37.68621 | -4.02929 | 38960 ft | 329 kts | 84° |
| 2026-04-25 15:07 | 37.68795 | -4.00041 | 39167 ft | 330 kts | 84° |
| 2026-04-25 15:07 | 37.68970 | -3.97145 | 39367 ft | 331 kts | 84° |
| 2026-04-25 15:08 | 37.69145 | -3.94240 | 39573 ft | 332 kts | 84° |
| 2026-04-25 15:08 | 37.69320 | -3.91332 | 39768 ft | 333 kts | 84° |
| 2026-04-25 15:08 | 37.69493 | -3.88414 | 39964 ft | 334 kts | 84° |
| 2026-04-25 15:08 | 37.69667 | -3.85479 | 40156 ft | 334 kts | 84° |
| 2026-04-25 15:09 | 37.69841 | -3.82549 | 40350 ft | 335 kts | 84° |
| 2026-04-25 15:09 | 37.70014 | -3.79610 | 40541 ft | 336 kts | 84° |
| 2026-04-25 15:09 | 37.70356 | -3.73755 | 40924 ft | 337 kts | 84° |
| 2026-04-25 15:10 | 37.70473 | -3.71752 | 41053 ft | 338 kts | 84° |
| 2026-04-25 15:10 | 37.70702 | -3.67819 | 41310 ft | 339 kts | 84° |
| 2026-04-25 15:10 | 37.71043 | -3.61866 | 41691 ft | 341 kts | 84° |
| 2026-04-25 15:11 | 37.71215 | -3.58874 | 41876 ft | 342 kts | 84° |
| 2026-04-25 15:11 | 37.71382 | -3.55910 | 42060 ft | 342 kts | 84° |
| 2026-04-25 15:11 | 37.71552 | -3.52910 | 42242 ft | 343 kts | 84° |
| 2026-04-25 15:12 | 37.71889 | -3.46883 | 42595 ft | 345 kts | 84° |
| 2026-04-25 15:12 | 37.72059 | -3.43856 | 42750 ft | 346 kts | 84° |
| 2026-04-25 15:12 | 37.72228 | -3.40822 | 42936 ft | 346 kts | 84° |
| 2026-04-25 15:12 | 37.72285 | -3.39799 | 42984 ft | 346 kts | 84° |
| 2026-04-25 15:13 | 37.72908 | -3.28401 | 43080 ft | 366 kts | 85° |
| 2026-04-25 15:14 | 37.73263 | -3.21886 | 43083 ft | 377 kts | 85° |
| 2026-04-25 15:14 | 37.73624 | -3.15230 | 43084 ft | 387 kts | 85° |
| 2026-04-25 15:15 | 37.73983 | -3.08365 | 43088 ft | 396 kts | 85° |
| 2026-04-25 15:15 | 37.74353 | -3.01337 | 43094 ft | 404 kts | 85° |
| 2026-04-25 15:16 | 37.74720 | -2.94169 | 43098 ft | 412 kts | 85° |
| 2026-04-25 15:16 | 37.75478 | -2.83228 | 43104 ft | 419 kts | 75° |
| 2026-04-25 15:17 | 37.77727 | -2.76541 | 43110 ft | 417 kts | 54° |
| 2026-04-25 15:17 | 37.79530 | -2.73682 | 43103 ft | 415 kts | 44° |
| 2026-04-25 15:18 | 37.83685 | -2.68606 | 43112 ft | 415 kts | 43° |
| 2026-04-25 15:18 | 37.89589 | -2.60585 | 43114 ft | 416 kts | 43° |
| 2026-04-25 15:19 | 37.92299 | -2.57084 | 43120 ft | 416 kts | 44° |
| 2026-04-25 15:19 | 37.97589 | -2.49969 | 43121 ft | 416 kts | 44° |
| 2026-04-25 15:20 | 38.01591 | -2.44665 | 43129 ft | 416 kts | 44° |
| 2026-04-25 15:20 | 38.05574 | -2.39313 | 43110 ft | 417 kts | 44° |
| 2026-04-25 15:21 | 38.09539 | -2.34013 | 43130 ft | 416 kts | 44° |
| 2026-04-25 15:21 | 38.13524 | -2.28660 | 43135 ft | 416 kts | 45° |
| 2026-04-25 15:22 | 38.17506 | -2.23308 | 43144 ft | 416 kts | 45° |
| 2026-04-25 15:22 | 38.21434 | -2.17891 | 43148 ft | 417 kts | 49° |
| 2026-04-25 15:23 | 38.25010 | -2.12069 | 43152 ft | 418 kts | 50° |
| 2026-04-25 15:23 | 38.28602 | -2.06297 | 43152 ft | 418 kts | 50° |
| 2026-04-25 15:24 | 38.32189 | -2.00478 | 43153 ft | 417 kts | 50° |
| 2026-04-25 15:24 | 38.34593 | -1.96586 | 43155 ft | 417 kts | 50° |
| 2026-04-25 15:25 | 38.39363 | -1.88845 | 43152 ft | 416 kts | 50° |
| 2026-04-25 15:25 | 38.42915 | -1.83070 | 43149 ft | 417 kts | 50° |
| 2026-04-25 15:26 | 38.46493 | -1.77239 | 43147 ft | 416 kts | 50° |
| 2026-04-25 15:26 | 38.50066 | -1.71408 | 43146 ft | 416 kts | 50° |
| 2026-04-25 15:27 | 38.53031 | -1.66560 | 43141 ft | 416 kts | 50° |
| 2026-04-25 15:28 | 38.58953 | -1.56856 | 43135 ft | 416 kts | 50° |
| 2026-04-25 15:28 | 38.61908 | -1.52002 | 43130 ft | 416 kts | 51° |
| 2026-04-25 15:29 | 38.65484 | -1.46121 | 43129 ft | 416 kts | 51° |
| 2026-04-25 15:29 | 38.69009 | -1.40309 | 43129 ft | 416 kts | 51° |
| 2026-04-25 15:30 | 38.71980 | -1.35401 | 43128 ft | 416 kts | 51° |
| 2026-04-25 15:30 | 38.76106 | -1.28585 | 43126 ft | 416 kts | 51° |
| 2026-04-25 15:31 | 38.79650 | -1.22714 | 43117 ft | 416 kts | 51° |
| 2026-04-25 15:31 | 38.83173 | -1.16871 | 43112 ft | 416 kts | 51° |
| 2026-04-25 15:32 | 38.86720 | -1.10978 | 43097 ft | 416 kts | 51° |
| 2026-04-25 15:32 | 38.88489 | -1.08030 | 42988 ft | 417 kts | 51° |
| 2026-04-25 15:32 | 38.90266 | -1.05068 | 42701 ft | 419 kts | 51° |
| 2026-04-25 15:33 | 38.93808 | -0.99164 | 42087 ft | 415 kts | 51° |
| 2026-04-25 15:33 | 38.95564 | -0.96230 | 41793 ft | 413 kts | 52° |
| 2026-04-25 15:33 | 38.97306 | -0.93315 | 41514 ft | 411 kts | 51° |
| 2026-04-25 15:33 | 38.99045 | -0.90404 | 41245 ft | 410 kts | 52° |
| 2026-04-25 15:34 | 39.00782 | -0.87497 | 40987 ft | 409 kts | 52° |
| 2026-04-25 15:34 | 39.02493 | -0.84629 | 40749 ft | 408 kts | 52° |
| 2026-04-25 15:34 | 39.04028 | -0.81556 | 40503 ft | 408 kts | 63° |
| 2026-04-25 15:34 | 39.04803 | -0.79302 | 40345 ft | 407 kts | 70° |
| 2026-04-25 15:35 | 39.05998 | -0.71011 | 39829 ft | 405 kts | 84° |
| 2026-04-25 15:35 | 39.06339 | -0.67409 | 39596 ft | 404 kts | 81° |
| 2026-04-25 15:35 | 39.06905 | -0.63913 | 39369 ft | 404 kts | 77° |
| 2026-04-25 15:36 | 39.08141 | -0.56878 | 38917 ft | 401 kts | 81° |
| 2026-04-25 15:36 | 39.08616 | -0.53344 | 38676 ft | 400 kts | 81° |
| 2026-04-25 15:36 | 39.09144 | -0.49819 | 38394 ft | 400 kts | 79° |
| 2026-04-25 15:37 | 39.09725 | -0.46314 | 38112 ft | 400 kts | 79° |
| 2026-04-25 15:37 | 39.10282 | -0.42795 | 37832 ft | 400 kts | 80° |
| 2026-04-25 15:37 | 39.10802 | -0.39273 | 37557 ft | 401 kts | 80° |
| 2026-04-25 15:37 | 39.11332 | -0.35744 | 37288 ft | 401 kts | 80° |
| 2026-04-25 15:38 | 39.11882 | -0.32217 | 37021 ft | 401 kts | 79° |
| 2026-04-25 15:38 | 39.12433 | -0.28691 | 36762 ft | 402 kts | 80° |
| 2026-04-25 15:38 | 39.12960 | -0.25198 | 36502 ft | 402 kts | 80° |
| 2026-04-25 15:38 | 39.13487 | -0.21656 | 36249 ft | 402 kts | 80° |
| 2026-04-25 15:39 | 39.14025 | -0.18117 | 35993 ft | 403 kts | 80° |
| 2026-04-25 15:39 | 39.14570 | -0.14568 | 35747 ft | 403 kts | 80° |
| 2026-04-25 15:39 | 39.15106 | -0.11022 | 35491 ft | 404 kts | 80° |
| 2026-04-25 15:39 | 39.15638 | -0.07463 | 35244 ft | 404 kts | 80° |
| 2026-04-25 15:40 | 39.16173 | -0.03899 | 35000 ft | 405 kts | 80° |
| 2026-04-25 15:40 | 39.16529 | -0.01543 | 34838 ft | 405 kts | 80° |
| 2026-04-25 15:40 | 39.17248 | 0.03238 | 34516 ft | 406 kts | 80° |
| 2026-04-25 15:40 | 39.17780 | 0.06812 | 34280 ft | 406 kts | 80° |
| 2026-04-25 15:41 | 39.18307 | 0.10352 | 34037 ft | 407 kts | 80° |
| 2026-04-25 15:41 | 39.18841 | 0.13936 | 33761 ft | 407 kts | 80° |
| 2026-04-25 15:41 | 39.19376 | 0.17529 | 33491 ft | 408 kts | 80° |
| 2026-04-25 15:41 | 39.19907 | 0.21125 | 33229 ft | 408 kts | 80° |
| 2026-04-25 15:42 | 39.20435 | 0.24698 | 32963 ft | 404 kts | 80° |
| 2026-04-25 15:42 | 39.20961 | 0.28258 | 32704 ft | 403 kts | 80° |
| 2026-04-25 15:42 | 39.21484 | 0.31813 | 32439 ft | 404 kts | 80° |
| 2026-04-25 15:42 | 39.22008 | 0.35381 | 32183 ft | 405 kts | 80° |
| 2026-04-25 15:43 | 39.22531 | 0.38953 | 31922 ft | 405 kts | 80° |
| 2026-04-25 15:43 | 39.23049 | 0.42499 | 31671 ft | 406 kts | 80° |
| 2026-04-25 15:43 | 39.23571 | 0.46082 | 31426 ft | 406 kts | 80° |
| 2026-04-25 15:43 | 39.24094 | 0.49669 | 31177 ft | 407 kts | 80° |
| 2026-04-25 15:44 | 39.24616 | 0.53253 | 30934 ft | 407 kts | 80° |
| 2026-04-25 15:44 | 39.25135 | 0.56849 | 30689 ft | 407 kts | 80° |
| 2026-04-25 15:44 | 39.25655 | 0.60453 | 30447 ft | 408 kts | 80° |
| 2026-04-25 15:44 | 39.26175 | 0.64049 | 30208 ft | 408 kts | 80° |
| 2026-04-25 15:45 | 39.26694 | 0.67649 | 29932 ft | 408 kts | 80° |
| 2026-04-25 15:45 | 39.27205 | 0.71217 | 29653 ft | 408 kts | 80° |
| 2026-04-25 15:45 | 39.27721 | 0.74827 | 29378 ft | 408 kts | 80° |
| 2026-04-25 15:45 | 39.28063 | 0.77212 | 29199 ft | 408 kts | 80° |
| 2026-04-25 15:46 | 39.28753 | 0.82049 | 28835 ft | 409 kts | 80° |
| 2026-04-25 15:46 | 39.29266 | 0.85654 | 28563 ft | 408 kts | 80° |
| 2026-04-25 15:46 | 39.29777 | 0.89256 | 28297 ft | 405 kts | 80° |
| 2026-04-25 15:46 | 39.30277 | 0.92789 | 28036 ft | 403 kts | 80° |
| 2026-04-25 15:47 | 39.30779 | 0.96344 | 27776 ft | 401 kts | 80° |
| 2026-04-25 15:47 | 39.31278 | 0.99882 | 27485 ft | 400 kts | 80° |
| 2026-04-25 15:47 | 39.31776 | 1.03422 | 27147 ft | 399 kts | 80° |
| 2026-04-25 15:47 | 39.32270 | 1.06937 | 26787 ft | 396 kts | 80° |
| 2026-04-25 15:48 | 39.32757 | 1.10432 | 26433 ft | 393 kts | 80° |
| 2026-04-25 15:48 | 39.33241 | 1.13900 | 26081 ft | 391 kts | 80° |
| 2026-04-25 15:48 | 39.33723 | 1.17345 | 25804 ft | 387 kts | 80° |
| 2026-04-25 15:48 | 39.34194 | 1.20741 | 25378 ft | 389 kts | 80° |
| 2026-04-25 15:49 | 39.34669 | 1.24171 | 24877 ft | 386 kts | 80° |
| 2026-04-25 15:49 | 39.35143 | 1.27571 | 24369 ft | 381 kts | 80° |
| 2026-04-25 15:49 | 39.35603 | 1.30917 | 23866 ft | 377 kts | 80° |
| 2026-04-25 15:49 | 39.36059 | 1.34242 | 23326 ft | 373 kts | 80° |
| 2026-04-25 15:50 | 39.36515 | 1.37529 | 22828 ft | 370 kts | 80° |
| 2026-04-25 15:50 | 39.36963 | 1.40801 | 22343 ft | 368 kts | 80° |
| 2026-04-25 15:50 | 39.37398 | 1.44011 | 21863 ft | 366 kts | 80° |
| 2026-04-25 15:50 | 39.37844 | 1.47245 | 21381 ft | 363 kts | 80° |
| 2026-04-25 15:51 | 39.38282 | 1.50450 | 20904 ft | 360 kts | 80° |
| 2026-04-25 15:51 | 39.38566 | 1.52558 | 20593 ft | 359 kts | 80° |
| 2026-04-25 15:51 | 39.39136 | 1.56753 | 19965 ft | 344 kts | 80° |
| 2026-04-25 15:51 | 39.39548 | 1.59772 | 19519 ft | 339 kts | 80° |
| 2026-04-25 15:52 | 39.39948 | 1.62769 | 19074 ft | 338 kts | 80° |
| 2026-04-25 15:52 | 39.40346 | 1.65713 | 18639 ft | 336 kts | 80° |
| 2026-04-25 15:52 | 39.40751 | 1.68685 | 18170 ft | 334 kts | 80° |
| 2026-04-25 15:52 | 39.41142 | 1.71626 | 17722 ft | 330 kts | 80° |
| 2026-04-25 15:53 | 39.41532 | 1.74544 | 17285 ft | 328 kts | 80° |
| 2026-04-25 15:53 | 39.41924 | 1.77439 | 16852 ft | 325 kts | 80° |
| 2026-04-25 15:53 | 39.42306 | 1.80315 | 16427 ft | 323 kts | 80° |
| 2026-04-25 15:53 | 39.42684 | 1.83168 | 16003 ft | 320 kts | 80° |
| 2026-04-25 15:54 | 39.43065 | 1.85996 | 15585 ft | 318 kts | 80° |
| 2026-04-25 15:54 | 39.43436 | 1.88801 | 15169 ft | 316 kts | 80° |
| 2026-04-25 15:54 | 39.43802 | 1.91594 | 14752 ft | 313 kts | 80° |
| 2026-04-25 15:54 | 39.44169 | 1.94327 | 14342 ft | 310 kts | 80° |
| 2026-04-25 15:55 | 39.44531 | 1.97078 | 13934 ft | 308 kts | 80° |
| 2026-04-25 15:55 | 39.44880 | 1.99752 | 13505 ft | 295 kts | 80° |
| 2026-04-25 15:55 | 39.45232 | 2.02356 | 13131 ft | 293 kts | 78° |
| 2026-04-25 15:55 | 39.45843 | 2.04845 | 13116 ft | 290 kts | 69° |
| 2026-04-25 15:56 | 39.46534 | 2.07316 | 13122 ft | 293 kts | 72° |
| 2026-04-25 15:56 | 39.47150 | 2.09841 | 13120 ft | 294 kts | 72° |
| 2026-04-25 15:56 | 39.47798 | 2.12353 | 13121 ft | 294 kts | 70° |
| 2026-04-25 15:56 | 39.48474 | 2.14818 | 13123 ft | 294 kts | 71° |
| 2026-04-25 15:57 | 39.49132 | 2.17325 | 13119 ft | 294 kts | 71° |
| 2026-04-25 15:57 | 39.49780 | 2.19845 | 13117 ft | 294 kts | 71° |
| 2026-04-25 15:57 | 39.50444 | 2.22352 | 13118 ft | 295 kts | 71° |
| 2026-04-25 15:57 | 39.51107 | 2.24870 | 13119 ft | 295 kts | 71° |
| 2026-04-25 15:58 | 39.51761 | 2.27393 | 13114 ft | 295 kts | 71° |
| 2026-04-25 15:58 | 39.52415 | 2.29883 | 13111 ft | 295 kts | 71° |
| 2026-04-25 15:58 | 39.53075 | 2.32403 | 13112 ft | 295 kts | 71° |
| 2026-04-25 15:58 | 39.53730 | 2.34929 | 13110 ft | 295 kts | 71° |
| 2026-04-25 15:59 | 39.54390 | 2.37449 | 13112 ft | 295 kts | 71° |
| 2026-04-25 15:59 | 39.55145 | 2.39919 | 13104 ft | 295 kts | 61° |
| 2026-04-25 15:59 | 39.56316 | 2.42109 | 13107 ft | 295 kts | 53° |
| 2026-04-25 15:59 | 39.57486 | 2.44267 | 12999 ft | 296 kts | 57° |
| 2026-04-25 16:00 | 39.58604 | 2.46500 | 12872 ft | 295 kts | 57° |
| 2026-04-25 16:00 | 39.58991 | 2.47249 | 12827 ft | 294 kts | 56° |
| 2026-04-25 16:00 | 39.60942 | 2.50861 | 12602 ft | 293 kts | 55° |
| 2026-04-25 16:00 | 39.62098 | 2.53042 | 12487 ft | 293 kts | 56° |
| 2026-04-25 16:01 | 39.63246 | 2.55231 | 12346 ft | 292 kts | 56° |
| 2026-04-25 16:01 | 39.64394 | 2.57410 | 12226 ft | 292 kts | 56° |
| 2026-04-25 16:01 | 39.65531 | 2.59549 | 12105 ft | 291 kts | 55° |
| 2026-04-25 16:01 | 39.66681 | 2.61715 | 11980 ft | 291 kts | 56° |
| 2026-04-25 16:02 | 39.67825 | 2.63888 | 11855 ft | 291 kts | 56° |
| 2026-04-25 16:02 | 39.68966 | 2.66055 | 11733 ft | 290 kts | 56° |
| 2026-04-25 16:02 | 39.70107 | 2.68215 | 11609 ft | 290 kts | 56° |
| 2026-04-25 16:02 | 39.71244 | 2.70380 | 11491 ft | 290 kts | 56° |
| 2026-04-25 16:03 | 39.72387 | 2.72546 | 11250 ft | 290 kts | 56° |
| 2026-04-25 16:03 | 39.73520 | 2.74704 | 10955 ft | 288 kts | 56° |
| 2026-04-25 16:03 | 39.74657 | 2.76848 | 10659 ft | 286 kts | 55° |
| 2026-04-25 16:03 | 39.75763 | 2.78957 | 10372 ft | 285 kts | 56° |
| 2026-04-25 16:04 | 39.76875 | 2.81094 | 10081 ft | 284 kts | 56° |
| 2026-04-25 16:04 | 39.77995 | 2.83209 | 9775 ft | 283 kts | 55° |
| 2026-04-25 16:04 | 39.79104 | 2.85313 | 9487 ft | 282 kts | 56° |
| 2026-04-25 16:04 | 39.80194 | 2.87425 | 9207 ft | 281 kts | 56° |
| 2026-04-25 16:05 | 39.81294 | 2.89525 | 8923 ft | 279 kts | 55° |
| 2026-04-25 16:05 | 39.82394 | 2.91601 | 8645 ft | 279 kts | 55° |
| 2026-04-25 16:05 | 39.84394 | 2.95888 | 8094 ft | 276 kts | 70° |
| 2026-04-25 16:06 | 39.84822 | 2.98319 | 7821 ft | 276 kts | 83° |
| 2026-04-25 16:06 | 39.84796 | 3.00807 | 7544 ft | 276 kts | 97° |
| 2026-04-25 16:06 | 39.84312 | 3.03178 | 7274 ft | 275 kts | 111° |
| 2026-04-25 16:06 | 39.83383 | 3.05354 | 6991 ft | 274 kts | 125° |
| 2026-04-25 16:07 | 39.82080 | 3.07166 | 6638 ft | 275 kts | 139° |
| 2026-04-25 16:07 | 39.81569 | 3.07680 | 6533 ft | 274 kts | 143° |
| 2026-04-25 16:07 | 39.78679 | 3.09285 | 6039 ft | 273 kts | 167° |
| 2026-04-25 16:07 | 39.76781 | 3.09480 | 5768 ft | 275 kts | 181° |
| 2026-04-25 16:08 | 39.74882 | 3.09205 | 5486 ft | 274 kts | 185° |
| 2026-04-25 16:08 | 39.73001 | 3.08841 | 5207 ft | 273 kts | 194° |
| 2026-04-25 16:08 | 39.71299 | 3.07812 | 4928 ft | 274 kts | 210° |
| 2026-04-25 16:08 | 39.69834 | 3.06234 | 4647 ft | 274 kts | 227° |
| 2026-04-25 16:09 | 39.68742 | 3.04217 | 4369 ft | 273 kts | 240° |
| 2026-04-25 16:09 | 39.67788 | 3.02098 | 4096 ft | 271 kts | 238° |
| 2026-04-25 16:09 | 39.66780 | 3.00041 | 3819 ft | 269 kts | 237° |
| 2026-04-25 16:09 | 39.65793 | 2.97986 | 3545 ft | 267 kts | 239° |
| 2026-04-25 16:10 | 39.64843 | 2.95921 | 3268 ft | 264 kts | 239° |
| 2026-04-25 16:10 | 39.63898 | 2.93874 | 2992 ft | 264 kts | 238° |
| 2026-04-25 16:10 | 39.62933 | 2.91850 | 2751 ft | 263 kts | 237° |
| 2026-04-25 16:10 | 39.61991 | 2.89827 | 2424 ft | 256 kts | 239° |
| 2026-04-25 16:11 | 39.61099 | 2.87921 | 2084 ft | 238 kts | 236° |
| 2026-04-25 16:11 | 39.60256 | 2.86205 | 1796 ft | 220 kts | 237° |
| 2026-04-25 16:11 | 39.59494 | 2.84553 | 1512 ft | 207 kts | 238° |
| 2026-04-25 16:11 | 39.58783 | 2.83026 | 1255 ft | 187 kts | 236° |
| 2026-04-25 16:12 | 39.58156 | 2.81729 | 1022 ft | 154 kts | 237° |
| 2026-04-25 16:12 | 39.57665 | 2.80659 | 824 ft | 122 kts | 238° |
| 2026-04-25 16:12 | 39.57241 | 2.79780 | 685 ft | 116 kts | 237° |
| 2026-04-25 16:12 | 39.57103 | 2.79488 | 636 ft | 117 kts | 238° |
| 2026-04-25 16:13 | 39.56431 | 2.78055 | 438 ft | 109 kts | 239° |
| 2026-04-25 16:13 | 39.56035 | 2.77209 | 272 ft | 108 kts | 238° |
| 2026-04-25 16:13 | 39.55658 | 2.76419 | 132 ft | 102 kts | 239° |
| 2026-04-25 16:13 | 39.55307 | 2.75668 | 27 ft | 90 kts | 239° |
| 2026-04-25 16:14 | 39.55027 | 2.75077 | 19 ft | 65 kts | 239° |
| 2026-04-25 16:14 | 39.54852 | 2.74676 | 21 ft | 34 kts | 248° |
| 2026-04-25 16:14 | 39.54806 | 2.74436 | 22 ft | 22 kts | 270° |
| 2026-04-25 16:14 | 39.54802 | 2.74262 | 23 ft | 17 kts | 267° |
| 2026-04-25 16:15 | 39.54795 | 2.74170 | 24 ft | 14 kts | 259° |
| 2026-04-25 16:15 | 39.54760 | 2.74066 | 26 ft | 11 kts | 238° |
| 2026-04-25 16:15 | 39.54720 | 2.73981 | 25 ft | 12 kts | 239° |
| 2026-04-25 16:15 | 39.54660 | 2.73856 | 25 ft | 13 kts | 238° |
| 2026-04-25 16:16 | 39.54622 | 2.73776 | 26 ft | 0 kts | 240° |
| 2026-04-25 16:16 | 39.54615 | 2.73759 | 28 ft | 8 kts | 241° |
| 2026-04-25 16:16 | 39.54590 | 2.73671 | 26 ft | 11 kts | 279° |
| 2026-04-25 16:17 | 39.54610 | 2.73581 | 27 ft | 12 kts | 253° |
| 2026-04-25 16:17 | 39.54576 | 2.73498 | 27 ft | 8 kts | 235° |
| 2026-04-25 16:17 | 39.54549 | 2.73442 | 27 ft | 6 kts | 240° |
| 2026-04-25 16:17 | 39.54530 | 2.73394 | 28 ft | 6 kts | 242° |
| 2026-04-25 16:18 | 39.54495 | 2.73331 | 28 ft | 14 kts | 234° |
| 2026-04-25 16:18 | 39.54453 | 2.73245 | 29 ft | 20 kts | 241° |
| 2026-04-25 16:18 | 39.54368 | 2.73067 | 30 ft | 11 kts | 244° |
| 2026-04-25 16:18 | 39.54336 | 2.72996 | 30 ft | 11 kts | 235° |
| 2026-04-25 16:19 | 39.54288 | 2.72891 | 31 ft | 16 kts | 239° |
| 2026-04-25 16:19 | 39.54202 | 2.72837 | 31 ft | 12 kts | 232° |
| 2026-04-25 16:19 | 39.54163 | 2.72752 | 31 ft | 11 kts | 236° |
| 2026-04-25 16:20 | 39.54040 | 2.72502 | 29 ft | 11 kts | 241° |
| 2026-04-25 16:20 | 39.54026 | 2.72497 | 29 ft | 6 kts | 149° |
| 2026-04-25 16:20 | 39.54019 | 2.72501 | 29 ft | 0 kts | 150° |